createdAt,value
2023-03-28T00:00:31.528Z,1.23
2023-03-28T00:02:58.487Z,3.04
2023-03-28T00:05:25.619Z,2.53
2023-03-28T00:07:54.178Z,1.45
2023-03-28T00:10:21.181Z,0.59
2023-03-28T00:12:48.224Z,-0.04
2023-03-28T00:15:15.591Z,-0.50
2023-03-28T00:17:43.396Z,-0.87
2023-03-28T00:20:11.987Z,-0.73
2023-03-28T00:22:39.268Z,1.43
2023-03-28T00:25:07.988Z,3.12
2023-03-28T00:27:36.389Z,2.49
2023-03-28T00:30:05.472Z,1.37
2023-03-28T00:32:32.368Z,0.50
2023-03-28T00:34:59.185Z,-0.12
2023-03-28T00:37:26.046Z,-0.61
2023-03-28T00:39:54.012Z,-0.99
2023-03-28T00:42:24.013Z,-0.81
2023-03-28T00:44:56.399Z,1.36
2023-03-28T00:47:39.144Z,3.19
2023-03-28T00:50:22.849Z,2.48
2023-03-28T00:53:05.359Z,1.19
2023-03-28T00:55:44.837Z,0.27
2023-03-28T00:58:17.457Z,-0.37
2023-03-28T01:00:47.785Z,-0.82
2023-03-28T01:03:18.989Z,-1.18
2023-03-28T01:05:48.006Z,-1.04
2023-03-28T01:08:22.847Z,1.12
2023-03-28T01:10:50.370Z,2.96
2023-03-28T01:13:21.422Z,2.43
2023-03-28T01:15:51.925Z,1.31
2023-03-28T01:18:22.989Z,0.45
2023-03-28T01:20:58.889Z,-0.18
2023-03-28T01:24:10.815Z,-0.66
2023-03-28T01:27:04.522Z,-1.12
2023-03-28T01:29:31.399Z,-0.72
2023-03-28T01:32:17.763Z,1.67
2023-03-28T01:35:07.536Z,3.22
2023-03-28T01:38:02.594Z,2.28
2023-03-28T01:40:38.634Z,0.94
2023-03-28T01:43:25.798Z,0.11
2023-03-28T01:46:11.674Z,-0.53
2023-03-28T01:48:57.153Z,-1.06
2023-03-28T01:51:37.673Z,-1.50
2023-03-28T01:54:13.798Z,-1.20
2023-03-28T01:57:12.478Z,1.26
2023-03-28T01:59:45.030Z,2.87
2023-03-28T02:02:37.106Z,1.80
2023-03-28T02:05:24.260Z,0.55
2023-03-28T02:07:52.438Z,-0.19
2023-03-28T02:10:30.945Z,-0.76
2023-03-28T02:13:11.658Z,-1.24
2023-03-28T02:19:25.170Z,-0.84
2023-03-28T02:22:39.846Z,2.18
2023-03-28T02:25:26.383Z,3.51
2023-03-28T02:28:25.184Z,2.04
2023-03-28T02:31:09.722Z,0.78
2023-03-28T02:33:39.634Z,-0.03
2023-03-28T02:36:30.305Z,-0.67
2023-03-28T02:39:15.602Z,-1.25
2023-03-28T02:41:54.705Z,-1.72
2023-03-28T02:44:33.411Z,-2.11
2023-03-28T02:47:39.030Z,-1.84
2023-03-28T02:50:28.440Z,1.25
2023-03-28T02:53:22.587Z,2.91
2023-03-28T02:56:15.258Z,1.64
2023-03-28T02:59:08.960Z,0.14
2023-03-28T03:01:37.057Z,-0.67
2023-03-28T03:04:04.255Z,-1.25
2023-03-28T03:06:31.236Z,-1.74
2023-03-28T03:08:58.081Z,-1.64
2023-03-28T03:11:28.653Z,0.66
2023-03-28T03:13:57.569Z,2.81
2023-03-28T03:16:24.669Z,3.50
2023-03-28T03:18:52.122Z,2.30
2023-03-28T03:21:19.002Z,0.95
2023-03-28T03:23:45.972Z,-0.05
2023-03-28T03:26:13.422Z,-0.77
2023-03-28T03:28:44.762Z,-1.35
2023-03-28T03:31:11.992Z,-1.43
2023-03-28T03:33:39.002Z,0.57
2023-03-28T03:36:06.966Z,2.62
2023-03-28T03:38:34.132Z,3.19
2023-03-28T03:41:01.379Z,1.95
2023-03-28T03:43:28.561Z,0.67
2023-03-28T03:45:56.645Z,-0.28
2023-03-28T03:48:23.658Z,-0.99
2023-03-28T03:50:55.708Z,-1.59
2023-03-28T03:53:22.612Z,-1.65
2023-03-28T03:56:14.276Z,0.60
2023-03-28T03:58:52.958Z,2.20
2023-03-28T04:01:19.839Z,1.28
2023-03-28T04:03:48.378Z,-0.01
2023-03-28T04:06:21.323Z,-1.00
2023-03-28T04:08:48.216Z,-1.64
2023-03-28T04:11:20.929Z,-2.09
2023-03-28T04:13:47.791Z,-1.96
2023-03-28T04:16:15.628Z,0.21
2023-03-28T04:18:51.153Z,2.50
2023-03-28T04:21:25.964Z,3.32
2023-03-28T04:23:54.899Z,2.04
2023-03-28T04:26:50.797Z,0.56
2023-03-28T04:29:25.341Z,-0.34
2023-03-28T04:32:13.043Z,-1.09
2023-03-28T04:35:03.578Z,-1.64
2023-03-28T04:37:30.676Z,-1.48
2023-03-28T04:40:01.777Z,0.72
2023-03-28T04:42:42.754Z,2.84
2023-03-28T04:45:19.300Z,3.37
2023-03-28T04:47:48.378Z,2.13
2023-03-28T04:50:19.961Z,0.83
2023-03-28T04:52:46.843Z,-0.12
2023-03-28T04:55:16.429Z,-0.81
2023-03-28T04:57:43.971Z,-0.95
